sensor_id;sensor_type;location;lat;lon;timestamp;pressure;altitude;pressure_sealevel;temperature;humidity
77954;BME280;67151;52.544;6.034;2023-02-26T00:00:06;101850;;;20.6;42.1
77954;BME280;67151;52.544;6.034;2023-02-26T00:00:21;101850;;;20.6;42.1
77954;BME280;67151;52.544;6.034;2023-02-26T00:00:36;101860;;;20.7;42.1
77954;BME280;67151;52.544;6.034;2023-02-26T00:00:51;101850;;;20.6;42.1
77954;BME280;67151;52.544;6.034;2023-02-26T00:01:10;101850;;;20.6;42.2
77954;BME280;67151;52.544;6.034;2023-02-26T00:01:21;101850;;;20.6;42.2
77954;BME280;67151;52.544;6.034;2023-02-26T00:01:36;101850;;;20.6;42.1
77954;BME280;67151;52.544;6.034;2023-02-26T00:01:51;101850;;;20.6;42.1
77954;BME280;67151;52.544;6.034;2023-02-26T00:02:06;101860;;;20.6;42.2
77954;BME280;67151;52.544;6.034;2023-02-26T00:02:21;101850;;;20.6;42.1
77954;BME280;67151;52.544;6.034;2023-02-26T00:02:36;101850;;;20.6;42.1
77954;BME280;67151;52.544;6.034;2023-02-26T00:02:51;101850;;;20.7;42.1
77954;BME280;67151;52.544;6.034;2023-02-26T00:03:06;101850;;;20.6;42.1
77954;BME280;67151;52.544;6.034;2023-02-26T00:03:21;101850;;;20.6;42.1
77954;BME280;67151;52.544;6.034;2023-02-26T00:03:36;101850;;;20.6;42.2
77954;BME280;67151;52.544;6.034;2023-02-26T00:03:51;101850;;;20.6;42.1
77954;BME280;67151;52.544;6.034;2023-02-26T00:04:06;101850;;;20.6;42.1
77954;BME280;67151;52.544;6.034;2023-02-26T00:04:21;101850;;;20.7;42.1
77954;BME280;67151;52.544;6.034;2023-02-26T00:04:36;101850;;;20.6;42.1
77954;BME280;67151;52.544;6.034;2023-02-26T00:04:51;101850;;;20.6;42.1
77954;BME280;67151;52.544;6.034;2023-02-26T00:05:06;101850;;;20.6;42.1
77954;BME280;67151;52.544;6.034;2023-02-26T00:05:21;101850;;;20.6;42.1
77954;BME280;67151;52.544;6.034;2023-02-26T00:05:36;101850;;;20.7;42.1
77954;BME280;67151;52.544;6.034;2023-02-26T00:05:51;101850;;;20.7;42.1
77954;BME280;67151;52.544;6.034;2023-02-26T00:06:06;101850;;;20.7;42
77954;BME280;67151;52.544;6.034;2023-02-26T00:06:21;101850;;;20.7;42.1
77954;BME280;67151;52.544;6.034;2023-02-26T00:06:36;101850;;;20.7;42.1
77954;BME280;67151;52.544;6.034;2023-02-26T00:06:51;101860;;;20.7;42
77954;BME280;67151;52.544;6.034;2023-02-26T00:07:06;101850;;;20.7;42
77954;BME280;67151;52.544;6.034;2023-02-26T00:07:21;101850;;;20.7;42
77954;BME280;67151;52.544;6.034;2023-02-26T00:07:36;101850;;;20.7;42
77954;BME280;67151;52.544;6.034;2023-02-26T00:07:51;101860;;;20.7;42
77954;BME280;67151;52.544;6.034;2023-02-26T00:08:06;101860;;;20.7;42.1
77954;BME280;67151;52.544;6.034;2023-02-26T00:08:21;101860;;;20.7;42
77954;BME280;67151;52.544;6.034;2023-02-26T00:08:36;101860;;;20.7;42
77954;BME280;67151;52.544;6.034;2023-02-26T00:08:51;101860;;;20.7;42.1
77954;BME280;67151;52.544;6.034;2023-02-26T00:09:06;101860;;;20.6;42.1
77954;BME280;67151;52.544;6.034;2023-02-26T00:09:21;101860;;;20.6;42.1
77954;BME280;67151;52.544;6.034;2023-02-26T00:09:36;101860;;;20.6;42.1
77954;BME280;67151;52.544;6.034;2023-02-26T00:09:51;101860;;;20.7;42.1
77954;BME280;67151;52.544;6.034;2023-02-26T00:10:07;101850;;;20.6;42
77954;BME280;67151;52.544;6.034;2023-02-26T00:10:21;101860;;;20.7;42.1
77954;BME280;67151;52.544;6.034;2023-02-26T00:10:36;101860;;;20.7;42
77954;BME280;67151;52.544;6.034;2023-02-26T00:10:51;101870;;;20.7;42
77954;BME280;67151;52.544;6.034;2023-02-26T00:11:06;101870;;;20.7;42.1
77954;BME280;67151;52.544;6.034;2023-02-26T00:11:21;101860;;;20.7;42.1
77954;BME280;67151;52.544;6.034;2023-02-26T00:11:36;101860;;;20.7;42.1
77954;BME280;67151;52.544;6.034;2023-02-26T00:11:51;101860;;;20.6;42.1
77954;BME280;67151;52.544;6.034;2023-02-26T00:12:06;101860;;;20.6;42.1
77954;BME280;67151;52.544;6.034;2023-02-26T00:12:21;101860;;;20.7;42.1
77954;BME280;67151;52.544;6.034;2023-02-26T00:12:36;101860;;;20.7;42
77954;BME280;67151;52.544;6.034;2023-02-26T00:12:51;101870;;;20.6;42.1
77954;BME280;67151;52.544;6.034;2023-02-26T00:13:07;101870;;;20.7;42.1
77954;BME280;67151;52.544;6.034;2023-02-26T00:13:21;101860;;;20.6;42
77954;BME280;67151;52.544;6.034;2023-02-26T00:13:37;101870;;;20.6;42.1
77954;BME280;67151;52.544;6.034;2023-02-26T00:13:51;101870;;;20.7;42.1
77954;BME280;67151;52.544;6.034;2023-02-26T00:14:07;101870;;;20.6;42.1
77954;BME280;67151;52.544;6.034;2023-02-26T00:14:21;101870;;;20.6;42.1
77954;BME280;67151;52.544;6.034;2023-02-26T00:14:36;101870;;;20.6;42.1
77954;BME280;67151;52.544;6.034;2023-02-26T00:14:51;101870;;;20.6;42.1
77954;BME280;67151;52.544;6.034;2023-02-26T00:15:06;101860;;;20.6;42.1
77954;BME280;67151;52.544;6.034;2023-02-26T00:15:21;101870;;;20.6;42.1
77954;BME280;67151;52.544;6.034;2023-02-26T00:15:36;101870;;;20.6;42.1
77954;BME280;67151;52.544;6.034;2023-02-26T00:15:51;101870;;;20.6;42.1
77954;BME280;67151;52.544;6.034;2023-02-26T00:16:09;101870;;;20.6;42.1
77954;BME280;67151;52.544;6.034;2023-02-26T00:16:23;101870;;;20.6;42.1
77954;BME280;67151;52.544;6.034;2023-02-26T00:16:36;101860;;;20.6;42.1
77954;BME280;67151;52.544;6.034;2023-02-26T00:16:53;101870;;;20.6;42.1
77954;BME280;67151;52.544;6.034;2023-02-26T00:17:08;101870;;;20.6;42.1
77954;BME280;67151;52.544;6.034;2023-02-26T00:17:25;101870;;;20.6;42.1
77954;BME280;67151;52.544;6.034;2023-02-26T00:17:38;101860;;;20.6;42.1
77954;BME280;67151;52.544;6.034;2023-02-26T00:17:52;101870;;;20.6;42.1
77954;BME280;67151;52.544;6.034;2023-02-26T00:18:06;101870;;;20.6;42.1
77954;BME280;67151;52.544;6.034;2023-02-26T00:18:21;101880;;;20.6;42.1
77954;BME280;67151;52.544;6.034;2023-02-26T00:18:36;101870;;;20.6;42.1
77954;BME280;67151;52.544;6.034;2023-02-26T00:18:51;101880;;;20.6;42.1
77954;BME280;67151;52.544;6.034;2023-02-26T00:19:07;101870;;;20.6;42.1
77954;BME280;67151;52.544;6.034;2023-02-26T00:19:21;101880;;;20.6;42.1
77954;BME280;67151;52.544;6.034;2023-02-26T00:19:36;101870;;;20.6;42.1
77954;BME280;67151;52.544;6.034;2023-02-26T00:19:51;101870;;;20.6;42.1
77954;BME280;67151;52.544;6.034;2023-02-26T00:20:06;101880;;;20.6;42.1
77954;BME280;67151;52.544;6.034;2023-02-26T00:20:21;101880;;;20.6;42.2
77954;BME280;67151;52.544;6.034;2023-02-26T00:20:36;101870;;;20.6;42.1
77954;BME280;67151;52.544;6.034;2023-02-26T00:20:51;101870;;;20.6;42.1
77954;BME280;67151;52.544;6.034;2023-02-26T00:21:21;101870;;;20.6;42.3
77954;BME280;67151;52.544;6.034;2023-02-26T00:21:22;101870;;;20.6;42.1
77954;BME280;67151;52.544;6.034;2023-02-26T00:21:36;101880;;;20.6;42.1
77954;BME280;67151;52.544;6.034;2023-02-26T00:21:51;101870;;;20.6;42.1
77954;BME280;67151;52.544;6.034;2023-02-26T00:22:06;101880;;;20.6;42.1
77954;BME280;67151;52.544;6.034;2023-02-26T00:22:21;101870;;;20.6;42.1
77954;BME280;67151;52.544;6.034;2023-02-26T00:22:36;101870;;;20.6;42.1
77954;BME280;67151;52.544;6.034;2023-02-26T00:22:51;101880;;;20.7;42.1
77954;BME280;67151;52.544;6.034;2023-02-26T00:23:07;101870;;;20.6;42.1
77954;BME280;67151;52.544;6.034;2023-02-26T00:23:21;101880;;;20.6;42.1
77954;BME280;67151;52.544;6.034;2023-02-26T00:23:36;101880;;;20.6;42.1
77954;BME280;67151;52.544;6.034;2023-02-26T00:23:51;101870;;;20.6;42
77954;BME280;67151;52.544;6.034;2023-02-26T00:24:06;101870;;;20.6;42
77954;BME280;67151;52.544;6.034;2023-02-26T00:24:21;101880;;;20.6;42.1
77954;BME280;67151;52.544;6.034;2023-02-26T00:24:36;101880;;;20.6;42.1
77954;BME280;67151;52.544;6.034;2023-02-26T00:24:51;101880;;;20.6;42.1
77954;BME280;67151;52.544;6.034;2023-02-26T00:25:06;101880;;;20.6;42.1
77954;BME280;67151;52.544;6.034;2023-02-26T00:25:21;101870;;;20.6;42.1
77954;BME280;67151;52.544;6.034;2023-02-26T00:25:36;101870;;;20.6;42.1
77954;BME280;67151;52.544;6.034;2023-02-26T00:25:51;101880;;;20.6;42.1
77954;BME280;67151;52.544;6.034;2023-02-26T00:26:06;101880;;;20.6;42.1
77954;BME280;67151;52.544;6.034;2023-02-26T00:26:22;101870;;;20.6;42.1
77954;BME280;67151;52.544;6.034;2023-02-26T00:26:36;101880;;;20.6;42.1
77954;BME280;67151;52.544;6.034;2023-02-26T00:26:51;101880;;;20.6;42.1
77954;BME280;67151;52.544;6.034;2023-02-26T00:27:06;101880;;;20.6;42.1
77954;BME280;67151;52.544;6.034;2023-02-26T00:27:21;101880;;;20.6;42.1
77954;BME280;67151;52.544;6.034;2023-02-26T00:27:36;101880;;;20.6;42.1
77954;BME280;67151;52.544;6.034;2023-02-26T00:27:51;101880;;;20.6;42.1
77954;BME280;67151;52.544;6.034;2023-02-26T00:28:06;101880;;;20.6;42.1
77954;BME280;67151;52.544;6.034;2023-02-26T00:28:21;101890;;;20.6;42.1
77954;BME280;67151;52.544;6.034;2023-02-26T00:28:36;101880;;;20.6;42.1
77954;BME280;67151;52.544;6.034;2023-02-26T00:28:51;101880;;;20.6;42.2
77954;BME280;67151;52.544;6.034;2023-02-26T00:29:06;101880;;;20.6;42.1
77954;BME280;67151;52.544;6.034;2023-02-26T00:29:21;101880;;;20.6;42.1
77954;BME280;67151;52.544;6.034;2023-02-26T00:29:36;101880;;;20.6;42.1
77954;BME280;67151;52.544;6.034;2023-02-26T00:29:51;101890;;;20.6;42.1
77954;BME280;67151;52.544;6.034;2023-02-26T00:30:06;101880;;;20.6;42.1
77954;BME280;67151;52.544;6.034;2023-02-26T00:30:21;101880;;;20.6;42.1
77954;BME280;67151;52.544;6.034;2023-02-26T00:30:36;101890;;;20.6;42.1
77954;BME280;67151;52.544;6.034;2023-02-26T00:30:51;101890;;;20.6;42.1
77954;BME280;67151;52.544;6.034;2023-02-26T00:31:06;101890;;;20.6;42.1
77954;BME280;67151;52.544;6.034;2023-02-26T00:31:21;101900;;;20.6;42.1
77954;BME280;67151;52.544;6.034;2023-02-26T00:31:36;101890;;;20.6;42
77954;BME280;67151;52.544;6.034;2023-02-26T00:31:51;101890;;;20.6;42.1
77954;BME280;67151;52.544;6.034;2023-02-26T00:32:06;101890;;;20.6;42.1
77954;BME280;67151;52.544;6.034;2023-02-26T00:32:21;101890;;;20.6;42.1
77954;BME280;67151;52.544;6.034;2023-02-26T00:32:36;101890;;;20.6;42
77954;BME280;67151;52.544;6.034;2023-02-26T00:32:51;101890;;;20.6;42.1
77954;BME280;67151;52.544;6.034;2023-02-26T00:33:06;101890;;;20.6;42.1
77954;BME280;67151;52.544;6.034;2023-02-26T00:33:21;101890;;;20.6;42
77954;BME280;67151;52.544;6.034;2023-02-26T00:33:36;101890;;;20.6;42
77954;BME280;67151;52.544;6.034;2023-02-26T00:33:51;101890;;;20.6;42.1
77954;BME280;67151;52.544;6.034;2023-02-26T00:34:09;101900;;;20.6;42.1
77954;BME280;67151;52.544;6.034;2023-02-26T00:34:21;101900;;;20.6;42
77954;BME280;67151;52.544;6.034;2023-02-26T00:34:36;101900;;;20.6;42
77954;BME280;67151;52.544;6.034;2023-02-26T00:34:51;101900;;;20.6;42
77954;BME280;67151;52.544;6.034;2023-02-26T00:35:06;101900;;;20.6;42.1
77954;BME280;67151;52.544;6.034;2023-02-26T00:35:21;101900;;;20.6;42.1
77954;BME280;67151;52.544;6.034;2023-02-26T00:35:36;101890;;;20.6;42.1
77954;BME280;67151;52.544;6.034;2023-02-26T00:35:52;101890;;;20.6;42.1
77954;BME280;67151;52.544;6.034;2023-02-26T00:36:09;101900;;;20.6;42
77954;BME280;67151;52.544;6.034;2023-02-26T00:36:22;101900;;;20.6;42
77954;BME280;67151;52.544;6.034;2023-02-26T00:36:37;101900;;;20.6;42
77954;BME280;67151;52.544;6.034;2023-02-26T00:37:01;101900;;;20.6;42
77954;BME280;67151;52.544;6.034;2023-02-26T00:37:09;101890;;;20.6;42
77954;BME280;67151;52.544;6.034;2023-02-26T00:37:24;101900;;;20.6;42.1
77954;BME280;67151;52.544;6.034;2023-02-26T00:37:41;101900;;;20.6;42.1
77954;BME280;67151;52.544;6.034;2023-02-26T00:37:56;101900;;;20.6;42.1
77954;BME280;67151;52.544;6.034;2023-02-26T00:38:06;101900;;;20.6;42
77954;BME280;67151;52.544;6.034;2023-02-26T00:38:21;101900;;;20.6;42
77954;BME280;67151;52.544;6.034;2023-02-26T00:38:36;101900;;;20.6;42
77954;BME280;67151;52.544;6.034;2023-02-26T00:38:55;101900;;;20.6;42
77954;BME280;67151;52.544;6.034;2023-02-26T00:39:08;101900;;;20.6;42.1
77954;BME280;67151;52.544;6.034;2023-02-26T00:39:26;101900;;;20.6;42.1
77954;BME280;67151;52.544;6.034;2023-02-26T00:39:37;101900;;;20.6;42
77954;BME280;67151;52.544;6.034;2023-02-26T00:39:54;101900;;;20.6;42.1
77954;BME280;67151;52.544;6.034;2023-02-26T00:40:09;101900;;;20.6;42.1
77954;BME280;67151;52.544;6.034;2023-02-26T00:40:22;101900;;;20.6;42
77954;BME280;67151;52.544;6.034;2023-02-26T00:40:39;101900;;;20.6;42
77954;BME280;67151;52.544;6.034;2023-02-26T00:40:51;101900;;;20.6;42
77954;BME280;67151;52.544;6.034;2023-02-26T00:41:06;101900;;;20.6;42.1
77954;BME280;67151;52.544;6.034;2023-02-26T00:41:21;101900;;;20.6;42.1
77954;BME280;67151;52.544;6.034;2023-02-26T00:41:36;101900;;;20.6;42
77954;BME280;67151;52.544;6.034;2023-02-26T00:41:51;101900;;;20.6;42
77954;BME280;67151;52.544;6.034;2023-02-26T00:42:06;101900;;;20.6;42
77954;BME280;67151;52.544;6.034;2023-02-26T00:42:21;101900;;;20.6;42
77954;BME280;67151;52.544;6.034;2023-02-26T00:42:36;101900;;;20.6;42.1
77954;BME280;67151;52.544;6.034;2023-02-26T00:42:51;101900;;;20.6;42.1
77954;BME280;67151;52.544;6.034;2023-02-26T00:43:06;101900;;;20.6;42.1
77954;BME280;67151;52.544;6.034;2023-02-26T00:43:22;101900;;;20.6;42
77954;BME280;67151;52.544;6.034;2023-02-26T00:43:36;101900;;;20.6;42
77954;BME280;67151;52.544;6.034;2023-02-26T00:43:51;101900;;;20.6;42.1
77954;BME280;67151;52.544;6.034;2023-02-26T00:44:06;101900;;;20.6;42.1
77954;BME280;67151;52.544;6.034;2023-02-26T00:44:21;101900;;;20.6;42
77954;BME280;67151;52.544;6.034;2023-02-26T00:44:36;101900;;;20.6;42
77954;BME280;67151;52.544;6.034;2023-02-26T00:44:51;101900;;;20.6;42
77954;BME280;67151;52.544;6.034;2023-02-26T00:45:06;101900;;;20.6;42
77954;BME280;67151;52.544;6.034;2023-02-26T00:45:21;101900;;;20.6;42.1
77954;BME280;67151;52.544;6.034;2023-02-26T00:45:36;101900;;;20.6;42
77954;BME280;67151;52.544;6.034;2023-02-26T00:45:53;101900;;;20.6;42
77954;BME280;67151;52.544;6.034;2023-02-26T00:46:15;101900;;;20.6;42
77954;BME280;67151;52.544;6.034;2023-02-26T00:46:23;101900;;;20.6;42
77954;BME280;67151;52.544;6.034;2023-02-26T00:46:37;101910;;;20.6;42
77954;BME280;67151;52.544;6.034;2023-02-26T00:46:52;101900;;;20.6;41.9
77954;BME280;67151;52.544;6.034;2023-02-26T00:47:07;101900;;;20.6;42
77954;BME280;67151;52.544;6.034;2023-02-26T00:47:24;101910;;;20.6;42
77954;BME280;67151;52.544;6.034;2023-02-26T00:47:38;101910;;;20.6;42
77954;BME280;67151;52.544;6.034;2023-02-26T00:47:53;101900;;;20.6;42
77954;BME280;67151;52.544;6.034;2023-02-26T00:48:12;101910;;;20.6;42
77954;BME280;67151;52.544;6.034;2023-02-26T00:48:25;101900;;;20.6;42
77954;BME280;67151;52.544;6.034;2023-02-26T00:48:39;101910;;;20.6;42
77954;BME280;67151;52.544;6.034;2023-02-26T00:48:52;101920;;;20.6;42
77954;BME280;67151;52.544;6.034;2023-02-26T00:49:09;101910;;;20.6;42
77954;BME280;67151;52.544;6.034;2023-02-26T00:49:22;101910;;;20.6;42
77954;BME280;67151;52.544;6.034;2023-02-26T00:49:41;101910;;;20.6;42
77954;BME280;67151;52.544;6.034;2023-02-26T00:49:54;101910;;;20.6;42
77954;BME280;67151;52.544;6.034;2023-02-26T00:50:10;101910;;;20.6;42.1
77954;BME280;67151;52.544;6.034;2023-02-26T00:50:21;101920;;;20.6;42.1
77954;BME280;67151;52.544;6.034;2023-02-26T00:50:36;101910;;;20.6;42.1
77954;BME280;67151;52.544;6.034;2023-02-26T00:50:52;101910;;;20.6;42.1
77954;BME280;67151;52.544;6.034;2023-02-26T00:51:07;101910;;;20.6;42.1
77954;BME280;67151;52.544;6.034;2023-02-26T00:51:22;101910;;;20.6;42
77954;BME280;67151;52.544;6.034;2023-02-26T00:51:37;101910;;;20.6;42.1
77954;BME280;67151;52.544;6.034;2023-02-26T00:51:51;101910;;;20.6;42.1
77954;BME280;67151;52.544;6.034;2023-02-26T00:52:09;101910;;;20.6;42.1
77954;BME280;67151;52.544;6.034;2023-02-26T00:52:24;101910;;;20.6;42.1
77954;BME280;67151;52.544;6.034;2023-02-26T00:52:38;101910;;;20.6;42
77954;BME280;67151;52.544;6.034;2023-02-26T00:52:55;101910;;;20.6;42
77954;BME280;67151;52.544;6.034;2023-02-26T00:53:07;101910;;;20.6;42
77954;BME280;67151;52.544;6.034;2023-02-26T00:53:22;101910;;;20.6;42
77954;BME280;67151;52.544;6.034;2023-02-26T00:53:38;101910;;;20.6;42
77954;BME280;67151;52.544;6.034;2023-02-26T00:53:53;101910;;;20.6;42
77954;BME280;67151;52.544;6.034;2023-02-26T00:54:07;101910;;;20.6;42
77954;BME280;67151;52.544;6.034;2023-02-26T00:54:21;101910;;;20.6;42
77954;BME280;67151;52.544;6.034;2023-02-26T00:54:36;101910;;;20.6;42
77954;BME280;67151;52.544;6.034;2023-02-26T00:54:51;101910;;;20.6;42
77954;BME280;67151;52.544;6.034;2023-02-26T00:55:06;101910;;;20.6;42
77954;BME280;67151;52.544;6.034;2023-02-26T00:55:21;101920;;;20.6;42
77954;BME280;67151;52.544;6.034;2023-02-26T00:55:36;101910;;;20.6;42
77954;BME280;67151;52.544;6.034;2023-02-26T00:55:51;101900;;;20.6;42
77954;BME280;67151;52.544;6.034;2023-02-26T00:56:06;101910;;;20.6;42
77954;BME280;67151;52.544;6.034;2023-02-26T00:56:21;101920;;;20.6;42
77954;BME280;67151;52.544;6.034;2023-02-26T00:56:36;101910;;;20.6;42
77954;BME280;67151;52.544;6.034;2023-02-26T00:56:51;101910;;;20.6;42
77954;BME280;67151;52.544;6.034;2023-02-26T00:57:06;101910;;;20.6;42
77954;BME280;67151;52.544;6.034;2023-02-26T00:57:21;101920;;;20.6;42
77954;BME280;67151;52.544;6.034;2023-02-26T00:57:36;101910;;;20.6;42.1
77954;BME280;67151;52.544;6.034;2023-02-26T00:57:51;101910;;;20.6;42.1
77954;BME280;67151;52.544;6.034;2023-02-26T00:58:06;101910;;;20.6;42
77954;BME280;67151;52.544;6.034;2023-02-26T00:58:21;101910;;;20.6;42
77954;BME280;67151;52.544;6.034;2023-02-26T00:58:36;101910;;;20.6;42
77954;BME280;67151;52.544;6.034;2023-02-26T00:58:51;101910;;;20.6;42
77954;BME280;67151;52.544;6.034;2023-02-26T00:59:06;101910;;;20.6;42
77954;BME280;67151;52.544;6.034;2023-02-26T00:59:21;101910;;;20.6;42
77954;BME280;67151;52.544;6.034;2023-02-26T00:59:36;101910;;;20.6;42
77954;BME280;67151;52.544;6.034;2023-02-26T00:59:51;101910;;;20.6;42
77954;BME280;67151;52.544;6.034;2023-02-26T01:00:06;101910;;;20.6;42
77954;BME280;67151;52.544;6.034;2023-02-26T01:00:21;101910;;;20.6;42
77954;BME280;67151;52.544;6.034;2023-02-26T01:00:36;101910;;;20.6;42
77954;BME280;67151;52.544;6.034;2023-02-26T01:00:51;101910;;;20.6;42
77954;BME280;67151;52.544;6.034;2023-02-26T01:01:06;101910;;;20.6;42
77954;BME280;67151;52.544;6.034;2023-02-26T01:01:21;101910;;;20.6;42
77954;BME280;67151;52.544;6.034;2023-02-26T01:01:36;101910;;;20.6;42
77954;BME280;67151;52.544;6.034;2023-02-26T01:01:51;101910;;;20.6;42
77954;BME280;67151;52.544;6.034;2023-02-26T01:02:06;101910;;;20.6;42
77954;BME280;67151;52.544;6.034;2023-02-26T01:02:21;101910;;;20.6;42
77954;BME280;67151;52.544;6.034;2023-02-26T01:02:36;101910;;;20.6;42.1
77954;BME280;67151;52.544;6.034;2023-02-26T01:02:51;101910;;;20.6;42
77954;BME280;67151;52.544;6.034;2023-02-26T01:03:06;101910;;;20.6;42
77954;BME280;67151;52.544;6.034;2023-02-26T01:03:21;101910;;;20.6;42
77954;BME280;67151;52.544;6.034;2023-02-26T01:03:36;101910;;;20.6;42
77954;BME280;67151;52.544;6.034;2023-02-26T01:03:51;101910;;;20.6;42
77954;BME280;67151;52.544;6.034;2023-02-26T01:04:06;101910;;;20.6;42
77954;BME280;67151;52.544;6.034;2023-02-26T01:04:21;101910;;;20.6;42
77954;BME280;67151;52.544;6.034;2023-02-26T01:04:36;101910;;;20.6;42
77954;BME280;67151;52.544;6.034;2023-02-26T01:04:51;101910;;;20.6;42
77954;BME280;67151;52.544;6.034;2023-02-26T01:05:06;101910;;;20.6;42
77954;BME280;67151;52.544;6.034;2023-02-26T01:05:21;101910;;;20.6;42
77954;BME280;67151;52.544;6.034;2023-02-26T01:05:36;101910;;;20.6;42.1
77954;BME280;67151;52.544;6.034;2023-02-26T01:05:51;101910;;;20.6;42
77954;BME280;67151;52.544;6.034;2023-02-26T01:06:09;101910;;;20.6;42
77954;BME280;67151;52.544;6.034;2023-02-26T01:06:21;101910;;;20.6;42.1
77954;BME280;67151;52.544;6.034;2023-02-26T01:06:37;101910;;;20.6;42.1
77954;BME280;67151;52.544;6.034;2023-02-26T01:06:52;101910;;;20.6;42
77954;BME280;67151;52.544;6.034;2023-02-26T01:07:06;101910;;;20.6;42
77954;BME280;67151;52.544;6.034;2023-02-26T01:07:21;101910;;;20.6;42
77954;BME280;67151;52.544;6.034;2023-02-26T01:07:37;101900;;;20.6;42
77954;BME280;67151;52.544;6.034;2023-02-26T01:07:53;101920;;;20.6;42
77954;BME280;67151;52.544;6.034;2023-02-26T01:08:08;101910;;;20.6;42
77954;BME280;67151;52.544;6.034;2023-02-26T01:08:22;101910;;;20.6;42
77954;BME280;67151;52.544;6.034;2023-02-26T01:08:37;101910;;;20.6;42
77954;BME280;67151;52.544;6.034;2023-02-26T01:08:53;101910;;;20.6;42
77954;BME280;67151;52.544;6.034;2023-02-26T01:09:08;101910;;;20.6;42
77954;BME280;67151;52.544;6.034;2023-02-26T01:09:22;101900;;;20.6;42
77954;BME280;67151;52.544;6.034;2023-02-26T01:09:36;101910;;;20.6;42.1
77954;BME280;67151;52.544;6.034;2023-02-26T01:09:51;101900;;;20.6;42
77954;BME280;67151;52.544;6.034;2023-02-26T01:10:06;101910;;;20.6;42.1
77954;BME280;67151;52.544;6.034;2023-02-26T01:10:21;101910;;;20.6;42.1
77954;BME280;67151;52.544;6.034;2023-02-26T01:10:36;101910;;;20.6;42
77954;BME280;67151;52.544;6.034;2023-02-26T01:10:51;101910;;;20.6;42
77954;BME280;67151;52.544;6.034;2023-02-26T01:11:06;101910;;;20.6;42
77954;BME280;67151;52.544;6.034;2023-02-26T01:11:21;101910;;;20.6;42
77954;BME280;67151;52.544;6.034;2023-02-26T01:11:36;101910;;;20.6;42
77954;BME280;67151;52.544;6.034;2023-02-26T01:11:51;101910;;;20.6;42
77954;BME280;67151;52.544;6.034;2023-02-26T01:12:07;101910;;;20.6;42
77954;BME280;67151;52.544;6.034;2023-02-26T01:12:21;101910;;;20.6;42.1
77954;BME280;67151;52.544;6.034;2023-02-26T01:12:36;101910;;;20.6;42.1
77954;BME280;67151;52.544;6.034;2023-02-26T01:12:51;101920;;;20.6;42
77954;BME280;67151;52.544;6.034;2023-02-26T01:13:06;101910;;;20.6;42
77954;BME280;67151;52.544;6.034;2023-02-26T01:13:21;101920;;;20.6;42.1
77954;BME280;67151;52.544;6.034;2023-02-26T01:13:36;101910;;;20.6;42
77954;BME280;67151;52.544;6.034;2023-02-26T01:13:51;101910;;;20.6;42
77954;BME280;67151;52.544;6.034;2023-02-26T01:14:06;101920;;;20.6;42
77954;BME280;67151;52.544;6.034;2023-02-26T01:14:21;101910;;;20.6;42
77954;BME280;67151;52.544;6.034;2023-02-26T01:14:36;101910;;;20.6;42
77954;BME280;67151;52.544;6.034;2023-02-26T01:14:51;101920;;;20.6;42
77954;BME280;67151;52.544;6.034;2023-02-26T01:15:06;101910;;;20.6;42
77954;BME280;67151;52.544;6.034;2023-02-26T01:15:21;101910;;;20.6;42.1
77954;BME280;67151;52.544;6.034;2023-02-26T01:15:36;101920;;;20.6;42.1
77954;BME280;67151;52.544;6.034;2023-02-26T01:15:51;101920;;;20.6;42
77954;BME280;67151;52.544;6.034;2023-02-26T01:16:07;101920;;;20.6;42
77954;BME280;67151;52.544;6.034;2023-02-26T01:16:22;101920;;;20.6;42
77954;BME280;67151;52.544;6.034;2023-02-26T01:16:37;101910;;;20.6;42
77954;BME280;67151;52.544;6.034;2023-02-26T01:16:52;101920;;;20.6;42
77954;BME280;67151;52.544;6.034;2023-02-26T01:17:07;101920;;;20.6;42
77954;BME280;67151;52.544;6.034;2023-02-26T01:17:22;101920;;;20.6;42
77954;BME280;67151;52.544;6.034;2023-02-26T01:17:40;101920;;;20.6;41.9
77954;BME280;67151;52.544;6.034;2023-02-26T01:17:53;101920;;;20.6;42
77954;BME280;67151;52.544;6.034;2023-02-26T01:18:07;101930;;;20.6;42
77954;BME280;67151;52.544;6.034;2023-02-26T01:18:21;101920;;;20.6;42
77954;BME280;67151;52.544;6.034;2023-02-26T01:18:37;101920;;;20.6;42
77954;BME280;67151;52.544;6.034;2023-02-26T01:18:51;101930;;;20.6;42
77954;BME280;67151;52.544;6.034;2023-02-26T01:19:07;101920;;;20.6;42
77954;BME280;67151;52.544;6.034;2023-02-26T01:19:24;101930;;;20.6;42
77954;BME280;67151;52.544;6.034;2023-02-26T01:19:37;101920;;;20.6;42
77954;BME280;67151;52.544;6.034;2023-02-26T01:19:51;101920;;;20.6;42
77954;BME280;67151;52.544;6.034;2023-02-26T01:20:08;101920;;;20.6;42
77954;BME280;67151;52.544;6.034;2023-02-26T01:20:21;101930;;;20.6;42
77954;BME280;67151;52.544;6.034;2023-02-26T01:20:37;101930;;;20.6;42
77954;BME280;67151;52.544;6.034;2023-02-26T01:20:53;101920;;;20.6;42
77954;BME280;67151;52.544;6.034;2023-02-26T01:21:07;101920;;;20.6;42
77954;BME280;67151;52.544;6.034;2023-02-26T01:21:22;101920;;;20.6;42
77954;BME280;67151;52.544;6.034;2023-02-26T01:21:36;101920;;;20.6;42
77954;BME280;67151;52.544;6.034;2023-02-26T01:21:53;101920;;;20.6;42
77954;BME280;67151;52.544;6.034;2023-02-26T01:22:07;101930;;;20.6;42
77954;BME280;67151;52.544;6.034;2023-02-26T01:22:21;101930;;;20.6;42
77954;BME280;67151;52.544;6.034;2023-02-26T01:22:38;101930;;;20.6;42
77954;BME280;67151;52.544;6.034;2023-02-26T01:22:51;101930;;;20.6;42
77954;BME280;67151;52.544;6.034;2023-02-26T01:23:07;101920;;;20.6;42
77954;BME280;67151;52.544;6.034;2023-02-26T01:23:22;101930;;;20.6;42
77954;BME280;67151;52.544;6.034;2023-02-26T01:23:37;101940;;;20.6;42
77954;BME280;67151;52.544;6.034;2023-02-26T01:23:51;101930;;;20.6;42
77954;BME280;67151;52.544;6.034;2023-02-26T01:24:07;101920;;;20.6;42
77954;BME280;67151;52.544;6.034;2023-02-26T01:24:21;101920;;;20.6;42
77954;BME280;67151;52.544;6.034;2023-02-26T01:24:36;101930;;;20.6;42
77954;BME280;67151;52.544;6.034;2023-02-26T01:24:53;101930;;;20.6;42
77954;BME280;67151;52.544;6.034;2023-02-26T01:25:07;101920;;;20.6;42